METAR Data
IDs: Format: Raw Decoded Include TAF

Data at: 0119 UTC 20 Jan 2022

LSMD 200050Z AUTO 15006KT 9999NDV BKN048 BKN055 02/M00 Q1026 RMK